sensor_id;sensor_type;location;lat;lon;timestamp;temperature;humidity
6758;DHT22;3416;53.074;8.822;2023-11-21T00:00:50;10.60;99.90
6758;DHT22;3416;53.074;8.822;2023-11-21T00:03:19;10.50;99.90
6758;DHT22;3416;53.074;8.822;2023-11-21T00:05:46;10.60;99.90
6758;DHT22;3416;53.074;8.822;2023-11-21T00:08:13;10.60;99.90
6758;DHT22;3416;53.074;8.822;2023-11-21T00:10:40;10.50;99.90
6758;DHT22;3416;53.074;8.822;2023-11-21T00:13:07;10.50;99.90
6758;DHT22;3416;53.074;8.822;2023-11-21T00:15:34;10.50;99.90
6758;DHT22;3416;53.074;8.822;2023-11-21T00:18:01;10.40;99.90
6758;DHT22;3416;53.074;8.822;2023-11-21T00:20:29;10.40;99.90
6758;DHT22;3416;53.074;8.822;2023-11-21T00:22:56;10.40;99.90
6758;DHT22;3416;53.074;8.822;2023-11-21T00:25:23;10.30;99.90
6758;DHT22;3416;53.074;8.822;2023-11-21T00:27:50;10.30;99.90
6758;DHT22;3416;53.074;8.822;2023-11-21T00:30:17;10.30;99.90
6758;DHT22;3416;53.074;8.822;2023-11-21T00:32:45;10.40;99.90
6758;DHT22;3416;53.074;8.822;2023-11-21T00:35:12;10.40;99.90
6758;DHT22;3416;53.074;8.822;2023-11-21T00:37:40;10.40;99.90
6758;DHT22;3416;53.074;8.822;2023-11-21T00:40:09;10.40;99.90
6758;DHT22;3416;53.074;8.822;2023-11-21T00:42:36;10.50;99.90
6758;DHT22;3416;53.074;8.822;2023-11-21T00:45:03;10.50;99.90
6758;DHT22;3416;53.074;8.822;2023-11-21T00:47:31;10.50;99.90
6758;DHT22;3416;53.074;8.822;2023-11-21T00:49:58;10.60;99.90
6758;DHT22;3416;53.074;8.822;2023-11-21T00:52:25;10.60;99.90
6758;DHT22;3416;53.074;8.822;2023-11-21T00:54:54;10.60;99.90
6758;DHT22;3416;53.074;8.822;2023-11-21T00:57:20;10.60;99.90
6758;DHT22;3416;53.074;8.822;2023-11-21T00:59:47;10.60;99.90
6758;DHT22;3416;53.074;8.822;2023-11-21T01:02:15;10.70;99.90
6758;DHT22;3416;53.074;8.822;2023-11-21T01:04:42;10.70;99.90
6758;DHT22;3416;53.074;8.822;2023-11-21T01:07:10;10.60;99.90
6758;DHT22;3416;53.074;8.822;2023-11-21T01:09:37;10.60;99.90
6758;DHT22;3416;53.074;8.822;2023-11-21T01:12:07;10.60;99.90
6758;DHT22;3416;53.074;8.822;2023-11-21T01:14:34;10.60;99.90
6758;DHT22;3416;53.074;8.822;2023-11-21T01:17:02;10.60;99.90
6758;DHT22;3416;53.074;8.822;2023-11-21T01:19:29;10.60;99.90
6758;DHT22;3416;53.074;8.822;2023-11-21T01:21:56;10.60;99.90
6758;DHT22;3416;53.074;8.822;2023-11-21T01:24:23;10.60;99.90
6758;DHT22;3416;53.074;8.822;2023-11-21T01:26:50;10.70;99.90
6758;DHT22;3416;53.074;8.822;2023-11-21T01:29:19;10.60;99.90
6758;DHT22;3416;53.074;8.822;2023-11-21T01:31:45;10.60;99.90
6758;DHT22;3416;53.074;8.822;2023-11-21T01:34:12;10.60;99.90
6758;DHT22;3416;53.074;8.822;2023-11-21T01:36:39;10.60;99.90
6758;DHT22;3416;53.074;8.822;2023-11-21T01:39:06;10.60;99.90
6758;DHT22;3416;53.074;8.822;2023-11-21T01:41:36;10.70;99.90
6758;DHT22;3416;53.074;8.822;2023-11-21T01:44:09;10.60;99.90
6758;DHT22;3416;53.074;8.822;2023-11-21T01:46:38;10.60;99.90
6758;DHT22;3416;53.074;8.822;2023-11-21T01:49:05;10.60;99.90
6758;DHT22;3416;53.074;8.822;2023-11-21T01:51:36;10.70;99.90
6758;DHT22;3416;53.074;8.822;2023-11-21T01:54:04;10.70;99.90
6758;DHT22;3416;53.074;8.822;2023-11-21T01:56:32;10.60;99.90
6758;DHT22;3416;53.074;8.822;2023-11-21T01:58:59;10.60;99.90
6758;DHT22;3416;53.074;8.822;2023-11-21T02:01:26;10.60;99.90
6758;DHT22;3416;53.074;8.822;2023-11-21T02:03:54;10.80;99.90
6758;DHT22;3416;53.074;8.822;2023-11-21T02:06:22;10.70;99.90
6758;DHT22;3416;53.074;8.822;2023-11-21T02:08:50;10.70;99.90
6758;DHT22;3416;53.074;8.822;2023-11-21T02:11:17;10.80;99.90
6758;DHT22;3416;53.074;8.822;2023-11-21T02:13:44;10.80;99.90
6758;DHT22;3416;53.074;8.822;2023-11-21T02:16:12;10.80;99.90
6758;DHT22;3416;53.074;8.822;2023-11-21T02:18:41;10.80;99.90
6758;DHT22;3416;53.074;8.822;2023-11-21T02:21:09;10.80;99.90
6758;DHT22;3416;53.074;8.822;2023-11-21T02:23:38;10.90;99.90
6758;DHT22;3416;53.074;8.822;2023-11-21T02:26:07;10.90;99.90
6758;DHT22;3416;53.074;8.822;2023-11-21T02:28:35;11.00;99.90
6758;DHT22;3416;53.074;8.822;2023-11-21T02:31:02;11.00;99.90
6758;DHT22;3416;53.074;8.822;2023-11-21T02:33:30;11.10;99.90
6758;DHT22;3416;53.074;8.822;2023-11-21T02:35:59;11.10;99.90
6758;DHT22;3416;53.074;8.822;2023-11-21T02:38:26;11.10;99.90
6758;DHT22;3416;53.074;8.822;2023-11-21T02:40:56;11.20;99.90
6758;DHT22;3416;53.074;8.822;2023-11-21T02:43:26;11.10;99.90
6758;DHT22;3416;53.074;8.822;2023-11-21T02:45:53;11.20;99.90
6758;DHT22;3416;53.074;8.822;2023-11-21T02:48:20;11.30;99.90
6758;DHT22;3416;53.074;8.822;2023-11-21T02:50:49;11.30;99.90
6758;DHT22;3416;53.074;8.822;2023-11-21T02:53:16;11.30;99.90
6758;DHT22;3416;53.074;8.822;2023-11-21T02:55:45;11.20;99.90
6758;DHT22;3416;53.074;8.822;2023-11-21T02:58:13;11.20;99.90
6758;DHT22;3416;53.074;8.822;2023-11-21T03:00:40;11.20;99.90
6758;DHT22;3416;53.074;8.822;2023-11-21T03:03:07;11.20;99.90
6758;DHT22;3416;53.074;8.822;2023-11-21T03:05:34;11.30;99.90
6758;DHT22;3416;53.074;8.822;2023-11-21T03:08:03;11.30;99.90
6758;DHT22;3416;53.074;8.822;2023-11-21T03:10:30;11.30;99.90
6758;DHT22;3416;53.074;8.822;2023-11-21T03:12:57;11.30;99.90
6758;DHT22;3416;53.074;8.822;2023-11-21T03:15:25;11.30;99.90
6758;DHT22;3416;53.074;8.822;2023-11-21T03:17:52;11.20;99.90
6758;DHT22;3416;53.074;8.822;2023-11-21T03:20:19;11.20;99.90
6758;DHT22;3416;53.074;8.822;2023-11-21T03:22:46;11.30;99.90
6758;DHT22;3416;53.074;8.822;2023-11-21T03:25:13;11.30;99.90
6758;DHT22;3416;53.074;8.822;2023-11-21T03:27:41;11.30;99.90
6758;DHT22;3416;53.074;8.822;2023-11-21T03:30:10;11.30;99.90
6758;DHT22;3416;53.074;8.822;2023-11-21T03:32:39;11.30;99.90
6758;DHT22;3416;53.074;8.822;2023-11-21T03:35:06;11.20;99.90
6758;DHT22;3416;53.074;8.822;2023-11-21T03:37:33;11.10;99.90
6758;DHT22;3416;53.074;8.822;2023-11-21T03:40:01;11.10;99.90
6758;DHT22;3416;53.074;8.822;2023-11-21T03:42:29;11.00;99.90
6758;DHT22;3416;53.074;8.822;2023-11-21T03:44:56;11.00;99.90
6758;DHT22;3416;53.074;8.822;2023-11-21T03:47:22;10.90;99.90
6758;DHT22;3416;53.074;8.822;2023-11-21T03:49:51;10.90;99.90
6758;DHT22;3416;53.074;8.822;2023-11-21T03:52:18;10.90;99.90
6758;DHT22;3416;53.074;8.822;2023-11-21T03:54:45;10.90;99.90
6758;DHT22;3416;53.074;8.822;2023-11-21T03:57:12;10.90;99.90
6758;DHT22;3416;53.074;8.822;2023-11-21T03:59:40;10.90;99.90
6758;DHT22;3416;53.074;8.822;2023-11-21T04:02:08;10.90;99.90
6758;DHT22;3416;53.074;8.822;2023-11-21T04:04:37;10.80;99.90
6758;DHT22;3416;53.074;8.822;2023-11-21T04:07:05;10.90;99.90
6758;DHT22;3416;53.074;8.822;2023-11-21T04:09:32;10.80;99.90
6758;DHT22;3416;53.074;8.822;2023-11-21T04:12:02;10.80;99.90
6758;DHT22;3416;53.074;8.822;2023-11-21T04:14:29;10.70;99.90
6758;DHT22;3416;53.074;8.822;2023-11-21T04:16:55;10.60;99.90
6758;DHT22;3416;53.074;8.822;2023-11-21T04:19:22;10.50;99.90
6758;DHT22;3416;53.074;8.822;2023-11-21T04:21:50;10.40;99.90
6758;DHT22;3416;53.074;8.822;2023-11-21T04:24:18;10.40;99.90
6758;DHT22;3416;53.074;8.822;2023-11-21T04:26:45;10.50;99.90
6758;DHT22;3416;53.074;8.822;2023-11-21T04:29:12;10.40;99.90
6758;DHT22;3416;53.074;8.822;2023-11-21T04:31:39;10.40;99.90
6758;DHT22;3416;53.074;8.822;2023-11-21T04:34:07;10.40;99.90
6758;DHT22;3416;53.074;8.822;2023-11-21T04:36:34;10.50;99.90
6758;DHT22;3416;53.074;8.822;2023-11-21T04:39:01;10.40;99.90
6758;DHT22;3416;53.074;8.822;2023-11-21T04:41:29;10.30;99.90
6758;DHT22;3416;53.074;8.822;2023-11-21T04:43:57;10.30;99.90
6758;DHT22;3416;53.074;8.822;2023-11-21T04:46:24;10.10;99.90
6758;DHT22;3416;53.074;8.822;2023-11-21T04:48:51;10.20;99.90
6758;DHT22;3416;53.074;8.822;2023-11-21T04:51:18;10.20;99.90
6758;DHT22;3416;53.074;8.822;2023-11-21T04:53:45;10.00;99.90
6758;DHT22;3416;53.074;8.822;2023-11-21T04:56:12;10.00;99.90
6758;DHT22;3416;53.074;8.822;2023-11-21T04:58:40;9.90;99.90
6758;DHT22;3416;53.074;8.822;2023-11-21T05:01:07;9.80;99.90
6758;DHT22;3416;53.074;8.822;2023-11-21T05:03:34;9.80;99.90
6758;DHT22;3416;53.074;8.822;2023-11-21T05:06:04;9.80;99.90
6758;DHT22;3416;53.074;8.822;2023-11-21T05:08:31;9.80;99.90
6758;DHT22;3416;53.074;8.822;2023-11-21T05:10:59;9.80;99.90
6758;DHT22;3416;53.074;8.822;2023-11-21T05:13:26;9.90;99.90
6758;DHT22;3416;53.074;8.822;2023-11-21T05:15:55;9.80;99.90
6758;DHT22;3416;53.074;8.822;2023-11-21T05:18:23;9.80;99.90
6758;DHT22;3416;53.074;8.822;2023-11-21T05:20:52;9.80;99.90
6758;DHT22;3416;53.074;8.822;2023-11-21T05:23:19;9.80;99.90
6758;DHT22;3416;53.074;8.822;2023-11-21T05:25:46;9.90;99.90
6758;DHT22;3416;53.074;8.822;2023-11-21T05:28:13;9.80;99.90
6758;DHT22;3416;53.074;8.822;2023-11-21T05:30:40;9.80;99.90
6758;DHT22;3416;53.074;8.822;2023-11-21T05:33:08;9.80;99.90
6758;DHT22;3416;53.074;8.822;2023-11-21T05:35:36;9.80;99.90
6758;DHT22;3416;53.074;8.822;2023-11-21T05:38:03;9.80;99.90
6758;DHT22;3416;53.074;8.822;2023-11-21T05:40:30;9.80;99.90
6758;DHT22;3416;53.074;8.822;2023-11-21T05:42:58;9.70;99.90
6758;DHT22;3416;53.074;8.822;2023-11-21T05:45:26;9.60;99.90
6758;DHT22;3416;53.074;8.822;2023-11-21T05:47:54;9.70;99.90
6758;DHT22;3416;53.074;8.822;2023-11-21T05:50:22;9.70;99.90
6758;DHT22;3416;53.074;8.822;2023-11-21T05:52:50;9.60;99.90
6758;DHT22;3416;53.074;8.822;2023-11-21T05:55:17;9.60;99.90
6758;DHT22;3416;53.074;8.822;2023-11-21T05:57:46;9.60;99.90
6758;DHT22;3416;53.074;8.822;2023-11-21T06:00:14;9.60;99.90
6758;DHT22;3416;53.074;8.822;2023-11-21T06:02:46;9.60;99.90
6758;DHT22;3416;53.074;8.822;2023-11-21T06:05:16;9.40;99.90
6758;DHT22;3416;53.074;8.822;2023-11-21T06:07:45;9.30;99.90
6758;DHT22;3416;53.074;8.822;2023-11-21T06:10:12;9.20;99.90
6758;DHT22;3416;53.074;8.822;2023-11-21T06:12:40;9.20;99.90
6758;DHT22;3416;53.074;8.822;2023-11-21T06:15:09;9.20;99.90
6758;DHT22;3416;53.074;8.822;2023-11-21T06:17:39;9.20;99.90
6758;DHT22;3416;53.074;8.822;2023-11-21T06:20:07;9.20;99.90
6758;DHT22;3416;53.074;8.822;2023-11-21T06:22:37;9.00;99.90
6758;DHT22;3416;53.074;8.822;2023-11-21T06:25:11;9.20;99.90
6758;DHT22;3416;53.074;8.822;2023-11-21T06:27:40;9.20;99.90
6758;DHT22;3416;53.074;8.822;2023-11-21T06:30:08;9.10;99.90
6758;DHT22;3416;53.074;8.822;2023-11-21T06:32:35;9.00;99.90
6758;DHT22;3416;53.074;8.822;2023-11-21T06:35:03;9.00;99.90
6758;DHT22;3416;53.074;8.822;2023-11-21T06:37:30;8.90;99.90
6758;DHT22;3416;53.074;8.822;2023-11-21T06:39:58;8.90;99.90
6758;DHT22;3416;53.074;8.822;2023-11-21T06:42:27;9.00;99.90
6758;DHT22;3416;53.074;8.822;2023-11-21T06:44:54;8.90;99.90
6758;DHT22;3416;53.074;8.822;2023-11-21T06:47:23;8.90;99.90
6758;DHT22;3416;53.074;8.822;2023-11-21T06:49:50;8.90;99.90
6758;DHT22;3416;53.074;8.822;2023-11-21T06:52:18;8.90;99.90
6758;DHT22;3416;53.074;8.822;2023-11-21T06:54:47;9.00;99.90
6758;DHT22;3416;53.074;8.822;2023-11-21T06:57:15;9.00;99.90
6758;DHT22;3416;53.074;8.822;2023-11-21T06:59:44;8.90;99.90
6758;DHT22;3416;53.074;8.822;2023-11-21T07:02:15;8.80;99.90
6758;DHT22;3416;53.074;8.822;2023-11-21T07:04:44;8.90;99.90
6758;DHT22;3416;53.074;8.822;2023-11-21T07:07:13;8.90;99.90
6758;DHT22;3416;53.074;8.822;2023-11-21T07:09:48;8.90;99.90
6758;DHT22;3416;53.074;8.822;2023-11-21T07:12:15;8.90;99.90
6758;DHT22;3416;53.074;8.822;2023-11-21T07:14:45;8.90;99.90
6758;DHT22;3416;53.074;8.822;2023-11-21T07:17:12;8.90;99.90
6758;DHT22;3416;53.074;8.822;2023-11-21T07:19:39;9.10;99.90
6758;DHT22;3416;53.074;8.822;2023-11-21T07:22:10;9.00;99.90
6758;DHT22;3416;53.074;8.822;2023-11-21T07:24:37;9.10;99.90
6758;DHT22;3416;53.074;8.822;2023-11-21T07:27:04;9.10;99.90
6758;DHT22;3416;53.074;8.822;2023-11-21T07:29:33;8.80;99.90
6758;DHT22;3416;53.074;8.822;2023-11-21T07:32:11;9.00;99.90
6758;DHT22;3416;53.074;8.822;2023-11-21T07:34:38;8.90;99.90
6758;DHT22;3416;53.074;8.822;2023-11-21T07:37:05;8.90;99.90
6758;DHT22;3416;53.074;8.822;2023-11-21T07:39:32;8.80;99.90
6758;DHT22;3416;53.074;8.822;2023-11-21T07:41:59;8.80;99.90
6758;DHT22;3416;53.074;8.822;2023-11-21T07:44:26;9.00;99.90
6758;DHT22;3416;53.074;8.822;2023-11-21T07:46:54;9.10;99.90
6758;DHT22;3416;53.074;8.822;2023-11-21T07:49:27;9.00;99.90
6758;DHT22;3416;53.074;8.822;2023-11-21T07:51:59;9.00;99.90
6758;DHT22;3416;53.074;8.822;2023-11-21T07:54:28;9.00;99.90
6758;DHT22;3416;53.074;8.822;2023-11-21T07:56:55;9.00;99.90
6758;DHT22;3416;53.074;8.822;2023-11-21T07:59:22;9.00;99.90
6758;DHT22;3416;53.074;8.822;2023-11-21T08:01:49;9.00;99.90
6758;DHT22;3416;53.074;8.822;2023-11-21T08:04:16;9.10;99.90
6758;DHT22;3416;53.074;8.822;2023-11-21T08:06:45;9.20;99.90
6758;DHT22;3416;53.074;8.822;2023-11-21T08:09:12;9.20;99.90
6758;DHT22;3416;53.074;8.822;2023-11-21T08:11:41;9.40;99.90
6758;DHT22;3416;53.074;8.822;2023-11-21T08:14:08;9.30;99.90
6758;DHT22;3416;53.074;8.822;2023-11-21T08:16:35;9.40;99.90
6758;DHT22;3416;53.074;8.822;2023-11-21T08:19:02;9.30;99.90
6758;DHT22;3416;53.074;8.822;2023-11-21T08:21:29;9.20;99.90
6758;DHT22;3416;53.074;8.822;2023-11-21T08:23:58;9.30;99.90
6758;DHT22;3416;53.074;8.822;2023-11-21T08:26:26;9.30;99.90
6758;DHT22;3416;53.074;8.822;2023-11-21T08:28:56;9.30;99.90
6758;DHT22;3416;53.074;8.822;2023-11-21T08:31:26;9.40;99.90
6758;DHT22;3416;53.074;8.822;2023-11-21T08:33:54;9.50;99.90
6758;DHT22;3416;53.074;8.822;2023-11-21T08:36:21;9.50;99.90
6758;DHT22;3416;53.074;8.822;2023-11-21T08:38:49;9.50;99.90
6758;DHT22;3416;53.074;8.822;2023-11-21T08:41:19;9.60;99.90
6758;DHT22;3416;53.074;8.822;2023-11-21T08:43:48;9.80;99.90
6758;DHT22;3416;53.074;8.822;2023-11-21T08:46:15;9.80;99.90
6758;DHT22;3416;53.074;8.822;2023-11-21T08:48:44;9.90;99.90
6758;DHT22;3416;53.074;8.822;2023-11-21T08:51:15;10.00;99.90
6758;DHT22;3416;53.074;8.822;2023-11-21T08:53:44;10.00;99.90
6758;DHT22;3416;53.074;8.822;2023-11-21T08:56:29;9.90;99.90
6758;DHT22;3416;53.074;8.822;2023-11-21T08:58:56;10.00;99.90
6758;DHT22;3416;53.074;8.822;2023-11-21T09:01:34;10.20;99.90
6758;DHT22;3416;53.074;8.822;2023-11-21T09:04:06;10.30;99.90
6758;DHT22;3416;53.074;8.822;2023-11-21T09:06:34;10.20;99.90
6758;DHT22;3416;53.074;8.822;2023-11-21T09:09:01;10.10;99.90
6758;DHT22;3416;53.074;8.822;2023-11-21T09:11:32;10.10;99.90
6758;DHT22;3416;53.074;8.822;2023-11-21T09:13:59;10.20;99.90
6758;DHT22;3416;53.074;8.822;2023-11-21T09:16:29;10.20;99.90
6758;DHT22;3416;53.074;8.822;2023-11-21T09:18:57;10.30;99.90
6758;DHT22;3416;53.074;8.822;2023-11-21T09:21:24;10.40;99.90
6758;DHT22;3416;53.074;8.822;2023-11-21T09:23:51;10.40;99.90
6758;DHT22;3416;53.074;8.822;2023-11-21T09:26:19;10.40;99.90
6758;DHT22;3416;53.074;8.822;2023-11-21T09:28:47;10.60;99.90
6758;DHT22;3416;53.074;8.822;2023-11-21T09:31:15;10.70;99.90
6758;DHT22;3416;53.074;8.822;2023-11-21T09:33:43;10.70;99.90
6758;DHT22;3416;53.074;8.822;2023-11-21T09:36:13;10.80;99.90
6758;DHT22;3416;53.074;8.822;2023-11-21T09:38:40;10.80;99.90
6758;DHT22;3416;53.074;8.822;2023-11-21T09:41:23;10.70;99.90
6758;DHT22;3416;53.074;8.822;2023-11-21T09:43:57;10.70;99.90
6758;DHT22;3416;53.074;8.822;2023-11-21T09:46:28;10.60;99.90
6758;DHT22;3416;53.074;8.822;2023-11-21T09:48:56;10.50;99.90
6758;DHT22;3416;53.074;8.822;2023-11-21T09:51:27;10.30;99.90
6758;DHT22;3416;53.074;8.822;2023-11-21T09:53:59;10.40;99.90
6758;DHT22;3416;53.074;8.822;2023-11-21T09:56:28;10.30;99.90
6758;DHT22;3416;53.074;8.822;2023-11-21T09:58:57;10.40;99.90
6758;DHT22;3416;53.074;8.822;2023-11-21T10:01:25;10.50;99.90
6758;DHT22;3416;53.074;8.822;2023-11-21T10:03:53;10.60;99.90
6758;DHT22;3416;53.074;8.822;2023-11-21T10:06:20;10.60;99.90
6758;DHT22;3416;53.074;8.822;2023-11-21T10:08:48;10.60;99.90
6758;DHT22;3416;53.074;8.822;2023-11-21T10:11:17;10.60;99.90
6758;DHT22;3416;53.074;8.822;2023-11-21T10:13:47;10.60;99.90
6758;DHT22;3416;53.074;8.822;2023-11-21T10:16:19;10.70;99.90
6758;DHT22;3416;53.074;8.822;2023-11-21T10:18:48;10.60;99.90
6758;DHT22;3416;53.074;8.822;2023-11-21T10:21:18;10.50;99.90
6758;DHT22;3416;53.074;8.822;2023-11-21T10:23:45;10.50;99.90
6758;DHT22;3416;53.074;8.822;2023-11-21T10:26:13;10.50;99.90
6758;DHT22;3416;53.074;8.822;2023-11-21T10:28:41;10.50;99.90
6758;DHT22;3416;53.074;8.822;2023-11-21T10:31:08;10.50;99.90
6758;DHT22;3416;53.074;8.822;2023-11-21T10:33:37;10.60;99.90
6758;DHT22;3416;53.074;8.822;2023-11-21T10:36:05;10.60;99.90
6758;DHT22;3416;53.074;8.822;2023-11-21T10:38:42;10.60;99.90
6758;DHT22;3416;53.074;8.822;2023-11-21T10:41:11;10.60;99.90
6758;DHT22;3416;53.074;8.822;2023-11-21T10:43:41;10.60;99.90
6758;DHT22;3416;53.074;8.822;2023-11-21T10:46:10;10.60;99.90
6758;DHT22;3416;53.074;8.822;2023-11-21T10:48:41;10.70;99.90
6758;DHT22;3416;53.074;8.822;2023-11-21T10:51:14;10.70;99.90
6758;DHT22;3416;53.074;8.822;2023-11-21T10:53:43;10.80;99.90
6758;DHT22;3416;53.074;8.822;2023-11-21T10:56:14;10.90;99.90
6758;DHT22;3416;53.074;8.822;2023-11-21T10:58:43;10.90;99.90
6758;DHT22;3416;53.074;8.822;2023-11-21T11:01:10;10.90;99.90
6758;DHT22;3416;53.074;8.822;2023-11-21T11:03:41;10.90;99.90
6758;DHT22;3416;53.074;8.822;2023-11-21T11:06:09;11.10;99.90
6758;DHT22;3416;53.074;8.822;2023-11-21T11:08:37;11.20;99.90
6758;DHT22;3416;53.074;8.822;2023-11-21T11:11:05;11.20;99.90
6758;DHT22;3416;53.074;8.822;2023-11-21T11:13:32;11.20;99.90
6758;DHT22;3416;53.074;8.822;2023-11-21T11:16:00;11.20;99.90
6758;DHT22;3416;53.074;8.822;2023-11-21T11:18:28;11.10;99.90
6758;DHT22;3416;53.074;8.822;2023-11-21T11:21:01;11.20;99.90
6758;DHT22;3416;53.074;8.822;2023-11-21T11:23:45;11.20;99.90
6758;DHT22;3416;53.074;8.822;2023-11-21T11:26:20;11.30;99.90
6758;DHT22;3416;53.074;8.822;2023-11-21T11:28:59;11.30;99.90
6758;DHT22;3416;53.074;8.822;2023-11-21T11:31:38;11.30;99.90
6758;DHT22;3416;53.074;8.822;2023-11-21T11:34:23;11.30;99.90
6758;DHT22;3416;53.074;8.822;2023-11-21T11:36:58;11.20;99.90
6758;DHT22;3416;53.074;8.822;2023-11-21T11:39:28;11.20;99.90
6758;DHT22;3416;53.074;8.822;2023-11-21T11:41:56;11.40;99.90
6758;DHT22;3416;53.074;8.822;2023-11-21T11:44:49;11.20;99.90
6758;DHT22;3416;53.074;8.822;2023-11-21T11:47:22;11.10;99.90
6758;DHT22;3416;53.074;8.822;2023-11-21T11:50:06;11.20;99.90
6758;DHT22;3416;53.074;8.822;2023-11-21T11:52:40;11.30;99.90
6758;DHT22;3416;53.074;8.822;2023-11-21T11:55:08;11.30;99.90
6758;DHT22;3416;53.074;8.822;2023-11-21T11:57:37;11.50;99.90
6758;DHT22;3416;53.074;8.822;2023-11-21T12:00:09;11.50;99.90
6758;DHT22;3416;53.074;8.822;2023-11-21T12:02:41;11.60;99.90
6758;DHT22;3416;53.074;8.822;2023-11-21T12:05:10;11.60;99.90
6758;DHT22;3416;53.074;8.822;2023-11-21T12:07:44;11.70;99.90
6758;DHT22;3416;53.074;8.822;2023-11-21T12:10:13;11.60;99.90
6758;DHT22;3416;53.074;8.822;2023-11-21T12:12:45;11.60;99.90
6758;DHT22;3416;53.074;8.822;2023-11-21T12:15:12;11.60;99.90
6758;DHT22;3416;53.074;8.822;2023-11-21T12:17:41;11.50;99.90
6758;DHT22;3416;53.074;8.822;2023-11-21T12:20:09;11.50;99.90
6758;DHT22;3416;53.074;8.822;2023-11-21T12:22:44;11.40;99.90
6758;DHT22;3416;53.074;8.822;2023-11-21T12:25:13;11.20;99.90
6758;DHT22;3416;53.074;8.822;2023-11-21T12:27:42;11.10;99.90
6758;DHT22;3416;53.074;8.822;2023-11-21T12:30:11;11.00;99.90
6758;DHT22;3416;53.074;8.822;2023-11-21T12:32:41;10.90;99.90
6758;DHT22;3416;53.074;8.822;2023-11-21T12:35:10;10.80;99.90
6758;DHT22;3416;53.074;8.822;2023-11-21T12:37:38;10.70;99.90
6758;DHT22;3416;53.074;8.822;2023-11-21T12:40:08;10.70;99.90
6758;DHT22;3416;53.074;8.822;2023-11-21T12:42:38;10.70;99.90
6758;DHT22;3416;53.074;8.822;2023-11-21T12:45:12;10.70;99.90
6758;DHT22;3416;53.074;8.822;2023-11-21T12:47:46;10.70;99.90
6758;DHT22;3416;53.074;8.822;2023-11-21T12:50:13;10.70;99.90
6758;DHT22;3416;53.074;8.822;2023-11-21T12:52:41;10.80;99.90
6758;DHT22;3416;53.074;8.822;2023-11-21T12:55:15;10.80;99.90
6758;DHT22;3416;53.074;8.822;2023-11-21T12:57:45;10.90;99.90
6758;DHT22;3416;53.074;8.822;2023-11-21T13:00:13;10.90;99.90
6758;DHT22;3416;53.074;8.822;2023-11-21T13:02:53;10.80;99.90
6758;DHT22;3416;53.074;8.822;2023-11-21T13:05:29;10.80;99.90
6758;DHT22;3416;53.074;8.822;2023-11-21T13:07:58;10.70;99.90
6758;DHT22;3416;53.074;8.822;2023-11-21T13:10:30;10.70;99.90
6758;DHT22;3416;53.074;8.822;2023-11-21T13:12:58;10.80;99.90
6758;DHT22;3416;53.074;8.822;2023-11-21T13:15:26;10.60;99.90
6758;DHT22;3416;53.074;8.822;2023-11-21T13:17:54;10.60;99.90
6758;DHT22;3416;53.074;8.822;2023-11-21T13:20:21;10.50;99.90
6758;DHT22;3416;53.074;8.822;2023-11-21T13:22:50;10.40;99.90
6758;DHT22;3416;53.074;8.822;2023-11-21T13:25:20;10.30;99.90
6758;DHT22;3416;53.074;8.822;2023-11-21T13:27:48;10.20;99.90
6758;DHT22;3416;53.074;8.822;2023-11-21T13:30:15;10.40;99.90
6758;DHT22;3416;53.074;8.822;2023-11-21T13:32:43;10.20;99.90
6758;DHT22;3416;53.074;8.822;2023-11-21T13:35:11;10.20;99.90
6758;DHT22;3416;53.074;8.822;2023-11-21T13:37:48;10.20;99.90
6758;DHT22;3416;53.074;8.822;2023-11-21T13:40:20;10.10;99.90
6758;DHT22;3416;53.074;8.822;2023-11-21T13:42:49;10.00;99.90
6758;DHT22;3416;53.074;8.822;2023-11-21T13:45:19;9.90;99.90
6758;DHT22;3416;53.074;8.822;2023-11-21T13:47:48;9.90;99.90
6758;DHT22;3416;53.074;8.822;2023-11-21T13:50:17;10.00;99.90
6758;DHT22;3416;53.074;8.822;2023-11-21T13:52:48;10.00;99.90
6758;DHT22;3416;53.074;8.822;2023-11-21T13:55:16;10.10;99.90
6758;DHT22;3416;53.074;8.822;2023-11-21T13:57:43;10.10;99.90
6758;DHT22;3416;53.074;8.822;2023-11-21T14:00:16;10.00;99.90
6758;DHT22;3416;53.074;8.822;2023-11-21T14:02:57;9.90;99.90
6758;DHT22;3416;53.074;8.822;2023-11-21T14:05:26;9.80;99.90
6758;DHT22;3416;53.074;8.822;2023-11-21T14:07:55;9.80;99.90
6758;DHT22;3416;53.074;8.822;2023-11-21T14:10:28;9.80;99.90
6758;DHT22;3416;53.074;8.822;2023-11-21T14:13:03;9.80;99.90
6758;DHT22;3416;53.074;8.822;2023-11-21T14:15:32;9.90;99.90
6758;DHT22;3416;53.074;8.822;2023-11-21T14:18:03;9.80;99.90
6758;DHT22;3416;53.074;8.822;2023-11-21T14:20:33;9.80;99.90
6758;DHT22;3416;53.074;8.822;2023-11-21T14:23:02;9.90;99.90
6758;DHT22;3416;53.074;8.822;2023-11-21T14:25:29;9.80;99.90
6758;DHT22;3416;53.074;8.822;2023-11-21T14:27:57;9.80;99.90
6758;DHT22;3416;53.074;8.822;2023-11-21T14:30:24;9.70;99.90
6758;DHT22;3416;53.074;8.822;2023-11-21T14:32:54;9.70;99.90
6758;DHT22;3416;53.074;8.822;2023-11-21T14:35:21;9.70;99.90
6758;DHT22;3416;53.074;8.822;2023-11-21T14:37:48;9.80;99.90
6758;DHT22;3416;53.074;8.822;2023-11-21T14:40:15;9.70;99.90
6758;DHT22;3416;53.074;8.822;2023-11-21T14:42:43;9.60;99.90
6758;DHT22;3416;53.074;8.822;2023-11-21T14:45:12;9.60;99.90
6758;DHT22;3416;53.074;8.822;2023-11-21T14:47:45;9.60;99.90
6758;DHT22;3416;53.074;8.822;2023-11-21T14:50:18;9.60;99.90
6758;DHT22;3416;53.074;8.822;2023-11-21T14:53:03;9.50;99.90
6758;DHT22;3416;53.074;8.822;2023-11-21T14:55:31;9.50;99.90
6758;DHT22;3416;53.074;8.822;2023-11-21T14:58:04;9.50;99.90
6758;DHT22;3416;53.074;8.822;2023-11-21T15:00:31;9.50;99.90
6758;DHT22;3416;53.074;8.822;2023-11-21T15:03:10;9.50;99.90
6758;DHT22;3416;53.074;8.822;2023-11-21T15:05:51;9.40;99.90
6758;DHT22;3416;53.074;8.822;2023-11-21T15:08:17;9.40;99.90
6758;DHT22;3416;53.074;8.822;2023-11-21T15:10:52;9.40;99.90
6758;DHT22;3416;53.074;8.822;2023-11-21T15:13:19;9.30;99.90
6758;DHT22;3416;53.074;8.822;2023-11-21T15:15:47;9.30;99.90
6758;DHT22;3416;53.074;8.822;2023-11-21T15:18:13;9.30;99.90
6758;DHT22;3416;53.074;8.822;2023-11-21T15:20:40;9.20;99.90
6758;DHT22;3416;53.074;8.822;2023-11-21T15:23:09;9.20;99.90
6758;DHT22;3416;53.074;8.822;2023-11-21T15:25:38;9.20;99.90
6758;DHT22;3416;53.074;8.822;2023-11-21T15:28:05;9.10;99.90
6758;DHT22;3416;53.074;8.822;2023-11-21T15:30:32;9.10;99.90
6758;DHT22;3416;53.074;8.822;2023-11-21T15:32:59;9.00;99.90
6758;DHT22;3416;53.074;8.822;2023-11-21T15:35:26;9.00;99.90
6758;DHT22;3416;53.074;8.822;2023-11-21T15:37:54;9.00;99.90
6758;DHT22;3416;53.074;8.822;2023-11-21T15:40:24;9.00;99.90
6758;DHT22;3416;53.074;8.822;2023-11-21T15:42:52;9.10;99.90
6758;DHT22;3416;53.074;8.822;2023-11-21T15:45:19;9.10;99.90
6758;DHT22;3416;53.074;8.822;2023-11-21T15:47:49;9.20;99.90
6758;DHT22;3416;53.074;8.822;2023-11-21T15:50:15;9.00;99.90
6758;DHT22;3416;53.074;8.822;2023-11-21T15:52:42;9.00;99.90
6758;DHT22;3416;53.074;8.822;2023-11-21T15:55:11;8.90;99.90
6758;DHT22;3416;53.074;8.822;2023-11-21T15:57:40;8.90;99.90
6758;DHT22;3416;53.074;8.822;2023-11-21T16:00:09;8.90;99.90
6758;DHT22;3416;53.074;8.822;2023-11-21T16:02:42;8.90;99.90
6758;DHT22;3416;53.074;8.822;2023-11-21T16:05:09;8.90;99.90
6758;DHT22;3416;53.074;8.822;2023-11-21T16:07:38;8.90;99.90
6758;DHT22;3416;53.074;8.822;2023-11-21T16:10:07;8.90;99.90
6758;DHT22;3416;53.074;8.822;2023-11-21T16:12:36;8.80;99.90
6758;DHT22;3416;53.074;8.822;2023-11-21T16:15:06;8.90;99.90
6758;DHT22;3416;53.074;8.822;2023-11-21T16:17:34;8.90;99.90